Time;durP1;ratioP1;P1;durP2;ratioP2;P2;SDS_P1;SDS_P2;PMS_P1;PMS_P2;Temp;Humidity;BMP_temperature;BMP_pressure;BME280_temperature;BME280_humidity;BME280_pressure;Samples;Min_cycle;Max_cycle;Signal;HPM_P1;HPM_P2
2021/12/21 00:01:08;;;;;;;5.13;4.10;;;;;;;;;;4471423;28;20035;-72
2021/12/21 00:03:18;;;;;;;5.70;4.65;;;;;;;;;;4469671;28;20042;-73
2021/12/21 00:05:30;;;;;;;6.10;5.07;;;;;;;;;;4470481;28;20540;-72
2021/12/21 00:07:41;;;;;;;6.13;5.15;;;;;;;;;;4486130;28;20145;-73
2021/12/21 00:09:51;;;;;;;5.95;5.00;;;;;;;;;;4470438;28;21026;-73
2021/12/21 00:12:02;;;;;;;6.73;5.10;;;;;;;;;;4453923;28;20122;-73
2021/12/21 00:14:32;;;;;;;7.37;5.37;;;;;;;;;;4471448;28;20062;-72
2021/12/21 00:23:31;;;;;;;6.05;4.93;;;;;;;;;;4470902;28;20064;-72
2021/12/21 00:25:42;;;;;;;6.63;5.20;;;;;;;;;;4455390;28;20043;-72
2021/12/21 00:27:52;;;;;;;5.43;4.80;;;;;;;;;;4471097;28;20053;-73
2021/12/21 00:30:03;;;;;;;6.17;4.93;;;;;;;;;;4453356;28;20047;-72
2021/12/21 00:32:14;;;;;;;5.18;4.05;;;;;;;;;;4470452;28;20169;-72
2021/12/21 00:34:25;;;;;;;6.07;4.80;;;;;;;;;;4470453;28;20158;-72
2021/12/21 00:36:38;;;;;;;6.60;5.22;;;;;;;;;;4470569;28;20582;-72
2021/12/21 00:38:50;;;;;;;5.90;4.85;;;;;;;;;;4471286;28;20078;-72
2021/12/21 00:41:01;;;;;;;5.53;4.57;;;;;;;;;;4470388;28;20062;-72
2021/12/21 00:43:11;;;;;;;5.70;4.70;;;;;;;;;;4470880;28;20166;-71
2021/12/21 00:45:21;;;;;;;5.87;4.70;;;;;;;;;;4470687;28;20498;-73
2021/12/21 00:47:34;;;;;;;6.03;4.90;;;;;;;;;;4471001;28;20035;-74
2021/12/21 00:49:46;;;;;;;5.53;4.90;;;;;;;;;;4470480;28;20849;-73
2021/12/21 00:51:57;;;;;;;5.93;4.93;;;;;;;;;;4485037;28;20166;-74
2021/12/21 00:54:07;;;;;;;5.73;4.70;;;;;;;;;;4485348;28;20030;-69
2021/12/21 00:56:18;;;;;;;5.17;4.40;;;;;;;;;;4484943;28;20053;-69
2021/12/21 00:58:29;;;;;;;5.40;4.73;;;;;;;;;;4467994;28;20039;-69
2021/12/21 01:00:39;;;;;;;5.30;4.20;;;;;;;;;;4468894;28;20069;-69
2021/12/21 01:02:50;;;;;;;4.97;4.20;;;;;;;;;;4470413;28;20049;-68
2021/12/21 01:05:02;;;;;;;4.88;4.22;;;;;;;;;;4484419;28;20406;-70
2021/12/21 01:09:51;;;;;;;5.53;4.50;;;;;;;;;;4484833;28;20046;-70
2021/12/21 01:11:57;;;;;;;4.55;3.95;;;;;;;;;;4469066;28;20070;-69
2021/12/21 01:14:43;;;;;;;4.90;3.97;;;;;;;;;;4470381;28;20105;-69
2021/12/21 01:19:17;;;;;;;5.07;4.30;;;;;;;;;;4455169;28;20046;-69
2021/12/21 01:21:32;;;;;;;4.72;4.10;;;;;;;;;;4470163;28;20880;-69
2021/12/21 01:26:10;;;;;;;4.67;3.80;;;;;;;;;;4485112;28;20034;-70
2021/12/21 01:31:24;;;;;;;4.90;4.00;;;;;;;;;;4400310;29;20071;-69
2021/12/21 01:33:51;;;;;;;4.45;3.80;;;;;;;;;;4400270;29;20138;-69
2021/12/21 01:36:03;;;;;;;4.50;3.75;;;;;;;;;;4401689;29;20067;-69
2021/12/21 01:38:27;;;;;;;3.70;3.22;;;;;;;;;;4401692;29;20028;-69
2021/12/21 01:50:00;;;;;;;3.70;3.25;;;;;;;;;;4390473;29;20053;-69
2021/12/21 01:52:17;;;;;;;3.83;3.33;;;;;;;;;;4401003;29;20040;-69
2021/12/21 01:54:27;;;;;;;3.97;3.30;;;;;;;;;;4384854;29;20107;-69
2021/12/21 01:56:38;;;;;;;3.13;2.83;;;;;;;;;;4398644;29;27362;-67
2021/12/21 01:58:49;;;;;;;5.23;3.90;;;;;;;;;;4399387;29;20280;-68
2021/12/21 02:01:05;;;;;;;6.25;5.18;;;;;;;;;;4398307;29;20049;-68
2021/12/21 02:03:16;;;;;;;4.60;3.67;;;;;;;;;;4469397;28;20041;-68
2021/12/21 02:05:26;;;;;;;4.60;4.00;;;;;;;;;;4483256;28;20038;-68
2021/12/21 02:07:37;;;;;;;4.43;3.80;;;;;;;;;;4468611;28;20400;-68
2021/12/21 02:09:47;;;;;;;6.53;3.67;;;;;;;;;;4451304;28;20476;-68
2021/12/21 02:11:57;;;;;;;4.00;3.27;;;;;;;;;;4469257;28;24679;-71
2021/12/21 02:14:10;;;;;;;5.30;4.03;;;;;;;;;;4484455;28;20069;-70
2021/12/21 02:19:19;;;;;;;4.90;4.05;;;;;;;;;;4397697;29;20040;-69
2021/12/21 02:21:35;;;;;;;;;;;;;;;;;;4449747;28;20054;-70
2021/12/21 02:23:47;;;;;;;5.20;4.20;;;;;;;;;;4469348;28;19941;-69
2021/12/21 02:26:20;;;;;;;4.25;3.60;;;;;;;;;;4451373;28;20461;-73
2021/12/21 02:30:46;;;;;;;13.50;11.50;;;;;;;;;;4483470;28;20053;-68
2021/12/21 02:32:56;;;;;;;4.05;3.40;;;;;;;;;;4468496;28;20073;-68
2021/12/21 02:35:08;;;;;;;3.40;2.80;;;;;;;;;;4469699;28;20102;-67
2021/12/21 02:37:18;;;;;;;3.85;3.13;;;;;;;;;;4484019;28;20141;-68
2021/12/21 02:39:28;;;;;;;4.43;3.23;;;;;;;;;;4468286;28;28858;-68
2021/12/21 02:41:39;;;;;;;3.80;3.10;;;;;;;;;;4468346;28;24544;-68
2021/12/21 02:43:50;;;;;;;2.90;2.60;;;;;;;;;;4483549;28;20046;-68
2021/12/21 02:46:00;;;;;;;4.30;3.57;;;;;;;;;;4467289;28;35207;-68
2021/12/21 02:48:11;;;;;;;4.83;3.40;;;;;;;;;;4450164;28;22939;-68
2021/12/21 02:50:21;;;;;;;3.83;3.13;;;;;;;;;;4452514;28;20047;-68
2021/12/21 02:52:33;;;;;;;3.47;3.00;;;;;;;;;;4483812;28;20080;-68
2021/12/21 02:54:44;;;;;;;4.38;3.05;;;;;;;;;;4469159;28;20034;-70
2021/12/21 02:56:55;;;;;;;4.17;3.20;;;;;;;;;;4469413;28;21050;-69
2021/12/21 02:59:05;;;;;;;3.00;2.58;;;;;;;;;;4468415;28;20117;-68
2021/12/21 03:01:16;;;;;;;4.03;3.30;;;;;;;;;;4468080;28;20047;-71
2021/12/21 03:03:27;;;;;;;3.43;3.07;;;;;;;;;;4469704;28;20058;-69
2021/12/21 03:05:38;;;;;;;3.57;2.73;;;;;;;;;;4467775;28;20279;-69
2021/12/21 03:10:16;;;;;;;3.53;2.65;;;;;;;;;;4468763;28;20045;-71
2021/12/21 03:14:38;;;;;;;3.47;2.80;;;;;;;;;;4453293;28;20408;-69
2021/12/21 03:16:48;;;;;;;3.13;2.72;;;;;;;;;;4468747;28;20045;-67
2021/12/21 03:18:59;;;;;;;3.57;2.83;;;;;;;;;;4470890;28;20038;-68
2021/12/21 03:21:10;;;;;;;3.27;2.77;;;;;;;;;;4454060;28;20562;-69
2021/12/21 03:23:20;;;;;;;3.85;3.13;;;;;;;;;;4453632;28;20054;-68
2021/12/21 03:25:31;;;;;;;3.67;2.90;;;;;;;;;;4471571;28;20039;-71
2021/12/21 03:27:41;;;;;;;3.80;2.97;;;;;;;;;;4486637;28;39835;-71
2021/12/21 03:29:52;;;;;;;3.47;2.90;;;;;;;;;;4473607;28;20050;-70
2021/12/21 03:32:02;;;;;;;3.33;2.70;;;;;;;;;;4454750;28;34021;-71
2021/12/21 03:34:13;;;;;;;3.53;2.83;;;;;;;;;;4472561;28;20254;-70
2021/12/21 03:36:23;;;;;;;3.23;2.87;;;;;;;;;;4454136;28;20070;-70
2021/12/21 03:38:35;;;;;;;3.47;2.97;;;;;;;;;;4472742;28;20042;-69
2021/12/21 03:40:45;;;;;;;3.30;2.65;;;;;;;;;;4471753;28;20042;-69
2021/12/21 03:42:56;;;;;;;3.47;2.90;;;;;;;;;;4472376;28;27792;-69
2021/12/21 03:45:07;;;;;;;3.50;2.90;;;;;;;;;;4453544;28;20126;-73
2021/12/21 03:47:18;;;;;;;3.22;2.67;;;;;;;;;;4487375;28;20034;-69
2021/12/21 03:51:45;;;;;;;3.30;2.80;;;;;;;;;;4472851;28;20050;-71
2021/12/21 03:53:55;;;;;;;3.80;2.83;;;;;;;;;;4469826;28;28583;-70
2021/12/21 03:58:35;;;;;;;3.70;3.10;;;;;;;;;;4484449;28;20034;-70
2021/12/21 04:00:45;;;;;;;3.73;3.27;;;;;;;;;;4470556;28;20403;-68
2021/12/21 04:02:56;;;;;;;4.97;3.00;;;;;;;;;;4470636;28;27954;-69
2021/12/21 04:05:07;;;;;;;3.43;2.90;;;;;;;;;;4486061;28;20062;-71
2021/12/21 04:07:17;;;;;;;3.60;3.05;;;;;;;;;;4470779;28;20073;-71
2021/12/21 04:09:27;;;;;;;3.53;2.37;;;;;;;;;;4468862;28;20031;-72
2021/12/21 04:11:38;;;;;;;3.40;2.70;;;;;;;;;;4453080;28;20091;-73
2021/12/21 04:13:49;;;;;;;3.80;3.00;;;;;;;;;;4470220;28;20038;-70
2021/12/21 04:16:01;;;;;;;3.77;2.90;;;;;;;;;;4470402;28;20672;-70
2021/12/21 04:18:13;;;;;;;3.20;2.60;;;;;;;;;;4484679;28;20042;-72
2021/12/21 04:20:24;;;;;;;3.90;3.00;;;;;;;;;;4469202;28;20134;-67
2021/12/21 04:22:34;;;;;;;3.87;3.20;;;;;;;;;;4471053;28;20134;-71
2021/12/21 04:24:45;;;;;;;3.23;2.67;;;;;;;;;;4470313;28;28854;-70
2021/12/21 04:26:55;;;;;;;4.33;3.17;;;;;;;;;;4452430;28;20150;-70
2021/12/21 04:29:06;;;;;;;3.43;2.97;;;;;;;;;;4470258;28;20498;-70
2021/12/21 04:31:16;;;;;;;3.57;3.00;;;;;;;;;;4469926;28;20038;-70
2021/12/21 04:33:26;;;;;;;2.93;2.50;;;;;;;;;;4484704;28;20472;-69
2021/12/21 04:35:37;;;;;;;3.23;2.90;;;;;;;;;;4470531;28;20038;-67
2021/12/21 04:37:53;;;;;;;3.47;2.87;;;;;;;;;;4469721;28;20102;-68
2021/12/21 04:40:07;;;;;;;4.32;3.10;;;;;;;;;;4465703;28;20035;-68
2021/12/21 04:42:18;;;;;;;3.95;3.15;;;;;;;;;;4484897;28;20062;-67
2021/12/21 04:44:28;;;;;;;3.60;3.00;;;;;;;;;;4484652;28;20493;-68
2021/12/21 04:46:39;;;;;;;4.13;2.97;;;;;;;;;;4470178;28;20026;-68
2021/12/21 04:48:49;;;;;;;3.80;3.27;;;;;;;;;;4485334;28;20369;-68
2021/12/21 04:51:00;;;;;;;3.77;3.03;;;;;;;;;;4484794;28;20230;-68
2021/12/21 04:53:10;;;;;;;3.87;2.90;;;;;;;;;;4452352;28;20035;-68
2021/12/21 04:55:21;;;;;;;3.43;2.73;;;;;;;;;;4469856;28;20143;-67
2021/12/21 04:57:31;;;;;;;3.57;2.70;;;;;;;;;;4469498;28;20035;-69
2021/12/21 04:59:42;;;;;;;3.67;2.80;;;;;;;;;;4469599;28;20035;-69
2021/12/21 05:01:53;;;;;;;3.77;3.07;;;;;;;;;;4470093;28;20045;-69
2021/12/21 05:04:04;;;;;;;;;;;;;;;;;;4471685;28;20035;-69
2021/12/21 05:06:15;;;;;;;6.55;5.25;;;;;;;;;;4469549;28;20387;-69
2021/12/21 05:08:31;;;;;;;4.20;3.53;;;;;;;;;;4452395;28;20605;-69
2021/12/21 05:10:49;;;;;;;3.88;2.90;;;;;;;;;;4468282;28;20066;-68
2021/12/21 05:12:59;;;;;;;3.55;2.90;;;;;;;;;;4452241;28;20043;-68
2021/12/21 05:15:09;;;;;;;3.27;2.60;;;;;;;;;;4469887;28;20411;-68
2021/12/21 05:17:20;;;;;;;4.37;2.70;;;;;;;;;;4483770;28;34210;-68
2021/12/21 05:19:31;;;;;;;3.23;2.30;;;;;;;;;;4469346;28;20035;-68
2021/12/21 05:21:42;;;;;;;3.22;2.35;;;;;;;;;;4468621;28;20097;-69
2021/12/21 05:23:52;;;;;;;3.03;2.50;;;;;;;;;;4468178;28;20078;-69
2021/12/21 05:26:03;;;;;;;3.40;2.60;;;;;;;;;;4470205;28;20093;-69
2021/12/21 05:28:15;;;;;;;3.10;2.43;;;;;;;;;;4451261;28;20389;-69
2021/12/21 05:30:26;;;;;;;3.00;2.42;;;;;;;;;;4469017;28;20109;-69
2021/12/21 05:32:37;;;;;;;3.40;2.70;;;;;;;;;;4453281;28;21373;-69
2021/12/21 05:34:47;;;;;;;3.03;2.57;;;;;;;;;;4451958;28;20035;-68
2021/12/21 05:36:58;;;;;;;3.27;2.67;;;;;;;;;;4468839;28;20399;-68
2021/12/21 05:39:17;;;;;;;4.07;2.78;;;;;;;;;;4468671;28;20039;-68
2021/12/21 05:41:40;;;;;;;4.30;2.90;;;;;;;;;;4467499;28;20035;-68
2021/12/21 05:43:51;;;;;;;3.30;2.60;;;;;;;;;;4453856;28;20039;-68
2021/12/21 05:46:02;;;;;;;3.60;2.67;;;;;;;;;;4469526;28;20886;-68
2021/12/21 05:48:12;;;;;;;3.70;2.80;;;;;;;;;;4451405;28;20110;-70
2021/12/21 05:50:22;;;;;;;3.77;2.73;;;;;;;;;;4451863;28;20047;-70
2021/12/21 05:52:33;;;;;;;3.00;2.63;;;;;;;;;;4446041;28;20042;-71
2021/12/21 05:54:43;;;;;;;2.77;2.40;;;;;;;;;;4469361;28;28562;-70
2021/12/21 05:56:54;;;;;;;3.53;2.80;;;;;;;;;;4468810;28;28216;-70
2021/12/21 05:59:04;;;;;;;3.37;2.67;;;;;;;;;;4469764;28;20460;-70
2021/12/21 06:01:15;;;;;;;3.10;2.57;;;;;;;;;;4483346;28;20095;-70
2021/12/21 06:03:25;;;;;;;3.43;2.60;;;;;;;;;;4469299;28;21120;-70
2021/12/21 06:05:36;;;;;;;2.77;2.43;;;;;;;;;;4468060;28;20621;-70
2021/12/21 06:07:49;;;;;;;3.83;2.83;;;;;;;;;;4468566;28;20467;-70
2021/12/21 06:10:09;;;;;;;3.55;2.83;;;;;;;;;;4469334;28;20673;-70
2021/12/21 06:26:26;;;;;;;3.40;2.67;;;;;;;;;;4468883;28;20037;-68
2021/12/21 06:28:38;;;;;;;3.93;2.70;;;;;;;;;;4468660;28;20926;-69
2021/12/21 06:30:49;;;;;;;3.45;2.63;;;;;;;;;;4451801;28;20051;-68
2021/12/21 06:32:59;;;;;;;3.55;2.70;;;;;;;;;;4468580;28;20035;-69
2021/12/21 06:35:10;;;;;;;3.27;2.60;;;;;;;;;;4468777;28;20062;-70
2021/12/21 06:37:21;;;;;;;2.78;2.45;;;;;;;;;;4483442;28;20128;-70
2021/12/21 06:39:33;;;;;;;3.87;2.90;;;;;;;;;;4468961;28;20439;-70
2021/12/21 06:41:44;;;;;;;3.20;2.67;;;;;;;;;;4469331;28;20586;-70
2021/12/21 06:43:55;;;;;;;3.60;2.80;;;;;;;;;;4468734;28;20065;-70
2021/12/21 06:46:14;;;;;;;3.23;2.60;;;;;;;;;;4469539;28;20037;-70
2021/12/21 06:53:24;;;;;;;2.55;2.30;;;;;;;;;;4484367;28;20039;-69
2021/12/21 06:55:35;;;;;;;3.23;2.63;;;;;;;;;;4472369;28;32174;-68
2021/12/21 06:57:46;;;;;;;2.90;2.17;;;;;;;;;;4474798;28;20070;-67
2021/12/21 06:59:56;;;;;;;3.37;2.60;;;;;;;;;;4473448;28;20046;-66
2021/12/21 07:02:08;;;;;;;2.60;2.30;;;;;;;;;;4474712;28;20121;-70
2021/12/21 07:04:19;;;;;;;3.35;2.53;;;;;;;;;;4474981;28;20039;-70
2021/12/21 07:06:29;;;;;;;3.15;2.50;;;;;;;;;;4474968;28;20450;-70
2021/12/21 07:08:48;;;;;;;3.03;2.37;;;;;;;;;;4474435;28;20566;-69
2021/12/21 07:18:29;;;;;;;3.45;2.80;;;;;;;;;;4473781;28;20112;-70
2021/12/21 07:20:40;;;;;;;3.28;2.60;;;;;;;;;;4472674;28;20765;-70
2021/12/21 07:22:50;;;;;;;3.43;2.50;;;;;;;;;;4455441;28;20041;-69
2021/12/21 07:25:01;;;;;;;30.30;25.20;;;;;;;;;;4473927;28;20057;-69
2021/12/21 07:27:11;;;;;;;32.87;27.03;;;;;;;;;;4456536;28;20086;-70
2021/12/21 07:29:22;;;;;;;3.37;2.70;;;;;;;;;;4475599;28;20117;-69
2021/12/21 07:31:33;;;;;;;2.73;2.33;;;;;;;;;;4473721;28;20109;-69
2021/12/21 07:33:43;;;;;;;3.17;2.77;;;;;;;;;;4487732;28;20074;-69
2021/12/21 07:35:53;;;;;;;3.23;2.80;;;;;;;;;;4474279;28;20114;-69
2021/12/21 07:38:05;;;;;;;3.43;2.50;;;;;;;;;;4474941;28;20042;-70
2021/12/21 07:40:15;;;;;;;2.67;2.28;;;;;;;;;;4474328;28;20030;-69
2021/12/21 07:42:26;;;;;;;3.47;2.80;;;;;;;;;;4473622;28;20035;-70
2021/12/21 07:44:37;;;;;;;3.37;2.73;;;;;;;;;;4449465;28;20588;-69
2021/12/21 07:46:47;;;;;;;2.57;2.17;;;;;;;;;;4473789;28;20030;-69
2021/12/21 07:48:58;;;;;;;2.90;2.40;;;;;;;;;;4474195;28;20546;-69
2021/12/21 07:51:09;;;;;;;2.90;2.57;;;;;;;;;;4473206;28;20082;-69
2021/12/21 07:53:19;;;;;;;3.00;2.47;;;;;;;;;;4473423;28;20121;-69
2021/12/21 07:55:30;;;;;;;2.90;2.60;;;;;;;;;;4488885;28;20089;-69
2021/12/21 07:57:40;;;;;;;2.50;2.30;;;;;;;;;;4471696;28;20053;-69
2021/12/21 07:59:51;;;;;;;3.73;2.70;;;;;;;;;;4473955;28;20488;-69
2021/12/21 08:02:01;;;;;;;3.43;2.53;;;;;;;;;;4472631;28;20034;-69
2021/12/21 08:04:12;;;;;;;3.33;2.50;;;;;;;;;;4487764;28;20085;-69
2021/12/21 08:06:23;;;;;;;2.72;2.33;;;;;;;;;;4484602;28;20061;-69
2021/12/21 08:08:36;;;;;;;2.85;2.40;;;;;;;;;;4470266;28;20083;-69
2021/12/21 08:13:01;;;;;;;3.40;2.53;;;;;;;;;;4455095;28;20031;-69
2021/12/21 08:15:11;;;;;;;3.37;2.73;;;;;;;;;;4467531;28;20046;-69
2021/12/21 08:17:22;;;;;;;3.27;2.50;;;;;;;;;;4451158;28;20141;-68
2021/12/21 08:19:32;;;;;;;3.93;2.87;;;;;;;;;;4466312;28;20093;-69
2021/12/21 08:21:43;;;;;;;3.93;3.00;;;;;;;;;;4469426;28;20601;-69
2021/12/21 08:23:54;;;;;;;3.37;2.80;;;;;;;;;;4469957;28;20042;-71
2021/12/21 08:26:06;;;;;;;2.50;2.20;;;;;;;;;;4469911;28;20043;-68
2021/12/21 08:28:16;;;;;;;2.60;2.00;;;;;;;;;;4469031;28;20105;-69
2021/12/21 08:30:27;;;;;;;2.40;2.20;;;;;;;;;;4467498;28;20448;-69
2021/12/21 08:32:37;;;;;;;3.67;2.58;;;;;;;;;;4468274;28;20626;-70
2021/12/21 08:34:48;;;;;;;3.00;2.30;;;;;;;;;;4450762;28;24311;-69
2021/12/21 08:36:58;;;;;;;4.07;2.40;;;;;;;;;;4482900;28;29225;-69
2021/12/21 08:39:09;;;;;;;2.77;2.23;;;;;;;;;;4468410;28;20053;-69
2021/12/21 08:41:22;;;;;;;3.35;2.60;;;;;;;;;;4467190;28;20090;-69
2021/12/21 08:43:34;;;;;;;3.10;2.50;;;;;;;;;;4460528;28;20035;-69
2021/12/21 08:45:47;;;;;;;2.50;2.08;;;;;;;;;;4467990;28;20038;-72
2021/12/21 08:47:59;;;;;;;2.83;2.42;;;;;;;;;;4483923;28;20029;-73
2021/12/21 08:50:12;;;;;;;3.15;2.75;;;;;;;;;;4468642;28;20035;-70
2021/12/21 08:52:22;;;;;;;3.78;2.50;;;;;;;;;;4468566;28;20038;-70
2021/12/21 08:54:32;;;;;;;3.00;2.67;;;;;;;;;;4450958;28;20094;-71
2021/12/21 08:56:44;;;;;;;3.17;2.60;;;;;;;;;;4468463;28;20119;-71
2021/12/21 08:58:54;;;;;;;2.90;2.50;;;;;;;;;;4468679;28;20123;-71
2021/12/21 09:01:05;;;;;;;3.30;2.40;;;;;;;;;;4484048;28;20537;-71
2021/12/21 09:03:16;;;;;;;3.23;2.43;;;;;;;;;;4484512;28;20066;-70
2021/12/21 09:05:29;;;;;;;3.42;2.50;;;;;;;;;;4469936;28;20035;-67
2021/12/21 09:07:41;;;;;;;4.05;2.70;;;;;;;;;;4468500;28;20043;-72
2021/12/21 09:09:52;;;;;;;3.22;2.63;;;;;;;;;;4465706;28;20031;-71
2021/12/21 09:12:03;;;;;;;2.73;2.23;;;;;;;;;;4467583;28;20035;-70
2021/12/21 09:14:13;;;;;;;3.22;2.70;;;;;;;;;;4467603;28;20046;-70
2021/12/21 09:16:24;;;;;;;3.43;2.87;;;;;;;;;;4450025;28;20036;-71
2021/12/21 09:18:35;;;;;;;3.83;2.80;;;;;;;;;;4467274;28;20973;-70
2021/12/21 09:20:45;;;;;;;3.50;2.70;;;;;;;;;;4449238;28;20283;-70
2021/12/21 09:22:57;;;;;;;3.47;2.73;;;;;;;;;;4468341;28;20034;-70
2021/12/21 09:25:08;;;;;;;3.10;2.80;;;;;;;;;;4467530;28;20629;-66
2021/12/21 09:27:19;;;;;;;3.20;2.55;;;;;;;;;;4452748;28;20894;-68
2021/12/21 09:29:30;;;;;;;3.47;2.77;;;;;;;;;;4468189;28;20590;-68
2021/12/21 09:31:41;;;;;;;3.20;2.72;;;;;;;;;;4468572;28;20042;-66
2021/12/21 09:33:51;;;;;;;3.03;2.43;;;;;;;;;;4468388;28;20047;-67
2021/12/21 09:36:02;;;;;;;2.97;2.60;;;;;;;;;;4466810;28;20031;-67
2021/12/21 09:38:12;;;;;;;3.50;2.60;;;;;;;;;;4468782;28;20038;-67
2021/12/21 09:40:30;;;;;;;3.10;2.50;;;;;;;;;;4467792;28;20053;-67
2021/12/21 09:42:41;;;;;;;3.38;2.70;;;;;;;;;;4480820;28;20037;-67
2021/12/21 09:44:52;;;;;;;3.33;2.57;;;;;;;;;;4467303;28;20043;-72
2021/12/21 09:47:03;;;;;;;3.72;2.58;;;;;;;;;;4482533;28;20038;-67
2021/12/21 09:49:15;;;;;;;4.10;2.60;;;;;;;;;;4449333;28;20064;-67
2021/12/21 09:51:26;;;;;;;3.97;2.85;;;;;;;;;;4466930;28;20668;-67
2021/12/21 09:53:36;;;;;;;2.87;2.50;;;;;;;;;;4449930;28;20023;-68
2021/12/21 09:55:48;;;;;;;3.13;2.50;;;;;;;;;;4468271;28;20035;-68
2021/12/21 09:57:59;;;;;;;3.25;2.40;;;;;;;;;;4467756;28;20038;-68
2021/12/21 10:00:14;;;;;;;3.50;2.80;;;;;;;;;;4466663;28;20035;-66
2021/12/21 10:02:26;;;;;;;3.28;2.40;;;;;;;;;;4482911;28;20798;-66
2021/12/21 10:04:58;;;;;;;3.75;2.80;;;;;;;;;;4467211;28;20042;-67
2021/12/21 10:07:10;;;;;;;2.72;2.28;;;;;;;;;;4481924;28;20795;-68
2021/12/21 10:09:23;;;;;;;2.80;2.40;;;;;;;;;;4466826;28;20038;-67
2021/12/21 10:11:43;;;;;;;3.10;2.40;;;;;;;;;;4467531;28;20097;-67
2021/12/21 10:13:53;;;;;;;3.78;2.75;;;;;;;;;;4468731;28;20723;-69
2021/12/21 10:16:05;;;;;;;3.83;2.60;;;;;;;;;;4450169;28;20126;-67
2021/12/21 10:18:31;;;;;;;3.88;2.75;;;;;;;;;;4449578;28;20043;-68
2021/12/21 10:20:45;;;;;;;2.80;2.20;;;;;;;;;;4481808;28;20039;-67
2021/12/21 10:22:55;;;;;;;3.72;2.42;;;;;;;;;;4468598;28;20074;-71
2021/12/21 10:25:08;;;;;;;3.50;2.43;;;;;;;;;;4450032;28;20062;-68
2021/12/21 10:27:21;;;;;;;4.53;3.13;;;;;;;;;;4467559;28;20039;-72
2021/12/21 10:29:46;;;;;;;3.80;2.75;;;;;;;;;;4452669;28;20110;-69
2021/12/21 10:31:57;;;;;;;3.15;2.55;;;;;;;;;;4468643;28;21032;-68
2021/12/21 10:34:14;;;;;;;3.07;2.60;;;;;;;;;;4468745;28;20031;-68
2021/12/21 10:36:26;;;;;;;3.33;2.90;;;;;;;;;;4482026;28;20034;-69
2021/12/21 10:38:50;;;;;;;3.78;2.78;;;;;;;;;;4482935;28;20560;-67
2021/12/21 10:41:10;;;;;;;3.20;2.63;;;;;;;;;;4468143;28;20142;-68
2021/12/21 10:43:20;;;;;;;3.08;2.70;;;;;;;;;;4468818;28;20039;-68
2021/12/21 10:45:33;;;;;;;3.33;2.60;;;;;;;;;;4483139;28;20034;-67
2021/12/21 10:47:46;;;;;;;3.47;2.67;;;;;;;;;;4467606;28;20054;-68
2021/12/21 10:49:56;;;;;;;3.60;2.60;;;;;;;;;;4483093;28;20062;-67
2021/12/21 10:52:09;;;;;;;3.57;2.53;;;;;;;;;;4468848;28;20119;-70
2021/12/21 10:54:34;;;;;;;3.92;3.00;;;;;;;;;;4450503;28;20035;-70
2021/12/21 10:56:44;;;;;;;4.10;3.03;;;;;;;;;;4468424;28;20031;-68
2021/12/21 10:58:55;;;;;;;3.87;2.90;;;;;;;;;;4468381;28;20610;-66
2021/12/21 11:01:08;;;;;;;4.57;3.30;;;;;;;;;;4467782;28;20039;-69
2021/12/21 11:03:30;;;;;;;3.65;2.90;;;;;;;;;;4450442;28;20051;-67
2021/12/21 11:05:42;;;;;;;3.47;2.83;;;;;;;;;;4481716;28;20509;-67
2021/12/21 11:07:56;;;;;;;4.00;2.85;;;;;;;;;;4450290;28;20043;-68
2021/12/21 11:10:11;;;;;;;3.28;2.70;;;;;;;;;;4467639;28;20454;-66
2021/12/21 11:12:24;;;;;;;4.20;3.10;;;;;;;;;;4468888;28;20035;-68
2021/12/21 11:14:34;;;;;;;3.60;3.00;;;;;;;;;;4449976;28;20094;-68
2021/12/21 11:16:51;;;;;;;3.73;3.10;;;;;;;;;;4467934;28;20109;-67
2021/12/21 11:19:03;;;;;;;3.47;2.70;;;;;;;;;;4467120;28;20066;-67
2021/12/21 11:21:13;;;;;;;3.92;3.03;;;;;;;;;;4483193;28;20597;-67
2021/12/21 11:23:25;;;;;;;3.57;2.47;;;;;;;;;;4449441;28;20043;-67
2021/12/21 11:25:36;;;;;;;3.70;2.63;;;;;;;;;;4482534;28;20166;-67
2021/12/21 11:27:47;;;;;;;3.55;2.65;;;;;;;;;;4482470;28;20042;-67
2021/12/21 11:30:01;;;;;;;3.17;2.58;;;;;;;;;;4467217;28;20144;-68
2021/12/21 11:32:13;;;;;;;4.20;2.83;;;;;;;;;;4467693;28;20035;-67
2021/12/21 11:34:24;;;;;;;;;;;;;;;;;;4464010;28;20605;-68
2021/12/21 11:39:08;;;;;;;3.53;2.72;;;;;;;;;;4463484;28;20050;-67
2021/12/21 11:41:18;;;;;;;3.33;2.80;;;;;;;;;;4484704;28;20062;-68
2021/12/21 11:43:37;;;;;;;2.87;2.57;;;;;;;;;;4452803;28;20035;-66
2021/12/21 11:46:05;;;;;;;4.13;3.20;;;;;;;;;;4435902;28;20043;-67
2021/12/21 11:48:21;;;;;;;2.88;2.53;;;;;;;;;;4485672;28;20030;-66
2021/12/21 11:50:32;;;;;;;3.25;2.53;;;;;;;;;;4451779;28;20051;-67
2021/12/21 11:52:54;;;;;;;3.93;3.00;;;;;;;;;;4469467;28;20043;-66
2021/12/21 11:55:05;;;;;;;;;;;;;;;;;;4470974;28;20109;-66
2021/12/21 11:57:18;;;;;;;3.33;2.80;;;;;;;;;;4466128;28;19922;-67
2021/12/21 11:59:30;;;;;;;3.47;2.75;;;;;;;;;;4452189;28;20047;-67
2021/12/21 12:01:45;;;;;;;3.50;2.83;;;;;;;;;;4470828;28;21297;-67
2021/12/21 12:04:01;;;;;;;3.38;2.70;;;;;;;;;;4452337;28;20040;-67
2021/12/21 12:06:15;;;;;;;3.35;2.78;;;;;;;;;;4453175;28;20130;-67
2021/12/21 12:08:39;;;;;;;4.05;3.28;;;;;;;;;;4470345;28;20066;-66
2021/12/21 12:10:55;;;;;;;3.97;3.13;;;;;;;;;;4469214;28;20818;-66
2021/12/21 12:13:11;;;;;;;3.78;3.00;;;;;;;;;;4469641;28;20039;-66
2021/12/21 12:15:21;;;;;;;3.50;3.00;;;;;;;;;;4485366;28;20041;-68
2021/12/21 12:17:33;;;;;;;2.80;2.40;;;;;;;;;;4471188;28;20039;-67
2021/12/21 12:20:05;;;;;;;3.40;2.63;;;;;;;;;;4469539;28;20027;-68
2021/12/21 12:22:15;;;;;;;4.18;3.35;;;;;;;;;;4453324;28;20918;-66
2021/12/21 12:24:33;;;;;;;4.27;3.03;;;;;;;;;;4452632;28;20083;-68
2021/12/21 12:26:56;;;;;;;3.75;3.10;;;;;;;;;;4468840;28;20594;-72
2021/12/21 12:29:18;;;;;;;3.70;3.08;;;;;;;;;;4452308;28;20042;-71
2021/12/21 12:31:36;;;;;;;3.75;3.22;;;;;;;;;;4469005;28;20043;-71
2021/12/21 12:33:49;;;;;;;4.30;3.30;;;;;;;;;;4469900;28;20877;-71
2021/12/21 12:36:02;;;;;;;4.07;3.00;;;;;;;;;;4470192;28;20791;-71
2021/12/21 12:38:15;;;;;;;4.55;3.28;;;;;;;;;;4470080;28;20065;-71
2021/12/21 12:40:37;;;;;;;3.45;2.60;;;;;;;;;;4470335;28;20122;-71
2021/12/21 12:43:08;;;;;;;3.22;2.60;;;;;;;;;;4469900;28;20574;-71
2021/12/21 12:45:22;;;;;;;3.25;2.53;;;;;;;;;;4469936;28;20047;-71
2021/12/21 12:47:42;;;;;;;2.80;2.50;;;;;;;;;;4469686;28;20042;-71
2021/12/21 12:49:54;;;;;;;3.67;2.85;;;;;;;;;;4470246;28;20045;-71
2021/12/21 12:52:16;;;;;;;3.40;2.70;;;;;;;;;;4468516;28;20047;-71
2021/12/21 12:54:27;;;;;;;3.70;2.85;;;;;;;;;;4481767;28;20085;-71
2021/12/21 12:56:39;;;;;;;3.03;2.70;;;;;;;;;;4469288;28;20090;-71
2021/12/21 12:58:54;;;;;;;3.50;2.90;;;;;;;;;;4484904;28;21021;-71
2021/12/21 13:01:18;;;;;;;4.25;2.90;;;;;;;;;;4469103;28;20035;-71
2021/12/21 13:03:35;;;;;;;2.90;2.60;;;;;;;;;;4484987;28;20042;-71
2021/12/21 13:05:52;;;;;;;4.20;2.88;;;;;;;;;;4468709;28;20039;-71
2021/12/21 13:08:11;;;;;;;3.67;2.80;;;;;;;;;;4436493;28;20052;-72
2021/12/21 13:10:23;;;;;;;3.45;2.67;;;;;;;;;;4467594;28;20569;-71
2021/12/21 13:12:33;;;;;;;3.20;2.80;;;;;;;;;;4469708;28;20070;-70
2021/12/21 13:14:54;;;;;;;4.23;3.33;;;;;;;;;;4452278;28;20114;-69
2021/12/21 13:17:05;;;;;;;3.23;2.70;;;;;;;;;;4470311;28;20046;-71
2021/12/21 13:19:15;;;;;;;3.67;3.10;;;;;;;;;;4485295;28;20134;-72
2021/12/21 13:21:29;;;;;;;4.03;3.20;;;;;;;;;;4469200;28;20113;-72
2021/12/21 13:23:39;;;;;;;4.03;3.20;;;;;;;;;;4485615;28;20624;-71
2021/12/21 13:25:59;;;;;;;3.80;3.20;;;;;;;;;;4470615;28;20144;-69
2021/12/21 13:28:11;;;;;;;3.80;3.17;;;;;;;;;;4470041;28;20677;-72
2021/12/21 13:30:22;;;;;;;4.63;3.30;;;;;;;;;;4471111;28;20089;-71
2021/12/21 13:32:34;;;;;;;3.53;3.20;;;;;;;;;;4469899;28;20129;-73
2021/12/21 13:34:47;;;;;;;3.78;3.20;;;;;;;;;;4452257;28;20098;-70
2021/12/21 13:37:03;;;;;;;4.47;3.58;;;;;;;;;;4450645;28;20133;-70
2021/12/21 13:39:27;;;;;;;4.35;3.30;;;;;;;;;;4451038;28;20058;-70
2021/12/21 13:41:54;;;;;;;4.28;3.35;;;;;;;;;;4483727;28;20030;-71
2021/12/21 13:44:04;;;;;;;4.32;3.10;;;;;;;;;;4469631;28;20408;-70
2021/12/21 13:46:15;;;;;;;5.03;3.37;;;;;;;;;;4469052;28;20035;-72
2021/12/21 13:48:25;;;;;;;4.27;3.10;;;;;;;;;;4469688;28;20031;-70
2021/12/21 13:50:36;;;;;;;44.13;36.47;;;;;;;;;;4467931;28;20034;-70
2021/12/21 13:52:53;;;;;;;40.00;34.70;;;;;;;;;;4467834;28;20118;-68
2021/12/21 13:55:07;;;;;;;4.30;3.30;;;;;;;;;;4450322;28;20039;-71
2021/12/21 13:57:19;;;;;;;3.45;2.67;;;;;;;;;;4482319;28;20045;-69
2021/12/21 13:59:29;;;;;;;;;;;;;;;;;;4483128;28;20034;-71
2021/12/21 14:01:42;;;;;;;3.60;2.67;;;;;;;;;;4449302;28;19930;-70
2021/12/21 14:03:56;;;;;;;4.35;3.30;;;;;;;;;;4482717;28;20037;-70
2021/12/21 14:06:13;;;;;;;4.55;3.15;;;;;;;;;;4466967;28;20034;-71
2021/12/21 14:08:23;;;;;;;3.60;3.22;;;;;;;;;;4468415;28;20043;-70
2021/12/21 14:10:43;;;;;;;3.87;3.33;;;;;;;;;;4468672;28;20046;-72
2021/12/21 14:12:57;;;;;;;3.83;3.38;;;;;;;;;;4467962;28;20039;-70
2021/12/21 14:15:09;;;;;;;4.07;3.20;;;;;;;;;;4484561;28;20097;-72
2021/12/21 14:17:19;;;;;;;4.38;3.45;;;;;;;;;;4481137;28;20034;-70
2021/12/21 14:19:30;;;;;;;3.63;3.10;;;;;;;;;;4467311;28;20031;-69
2021/12/21 14:21:41;;;;;;;4.13;3.40;;;;;;;;;;4468158;28;20043;-71
2021/12/21 14:23:58;;;;;;;4.40;3.20;;;;;;;;;;4435062;28;21127;-71
2021/12/21 14:26:10;;;;;;;4.25;3.58;;;;;;;;;;4468563;28;20034;-70
2021/12/21 14:28:21;;;;;;;4.18;3.30;;;;;;;;;;4482516;28;20829;-71